Time;durP1;ratioP1;P1;durP2;ratioP2;P2;SDS_P1;SDS_P2;PMS_P1;PMS_P2;Temp;Humidity;BMP_temperature;BMP_pressure;BME280_temperature;BME280_humidity;BME280_pressure;Samples;Min_cycle;Max_cycle;Signal;HPM_P1;HPM_P2
2021/12/31 00:03:17;;;;;;;8.03;7.10;;;;;;;9.17;100.00;100370.28;5216096;56;1139135;-73
2021/12/31 00:08:23;;;;;;;10.60;8.00;;;;;;;9.18;100.00;100370.66;5215776;56;1136981;-75
2021/12/31 00:13:30;;;;;;;8.97;8.07;;;;;;;9.22;100.00;100362.04;5130555;57;1139071;-81
2021/12/31 00:18:36;;;;;;;8.60;7.73;;;;;;;9.25;100.00;100351.73;5130759;57;1137084;-75
2021/12/31 00:23:43;;;;;;;9.07;7.37;;;;;;;9.26;100.00;100342.39;5130777;57;1137051;-81
2021/12/31 00:28:49;;;;;;;7.97;7.10;;;;;;;9.29;100.00;100342.64;5131102;57;1137269;-75
2021/12/31 00:33:55;;;;;;;11.20;7.23;;;;;;;9.32;100.00;100336.63;5131621;57;1137459;-72
2021/12/31 00:39:01;;;;;;;7.37;6.63;;;;;;;9.38;100.00;100341.94;5131293;57;1139285;-73
2021/12/31 00:44:07;;;;;;;7.87;6.47;;;;;;;9.42;100.00;100339.44;5131138;57;1137249;-74
2021/12/31 00:49:12;;;;;;;11.83;8.67;;;;;;;9.47;100.00;100338.63;5116425;57;1137229;-73
2021/12/31 00:54:18;;;;;;;8.77;7.87;;;;;;;9.51;100.00;100347.49;5120897;57;1139020;-77
2021/12/31 00:59:24;;;;;;;8.40;7.33;;;;;;;9.49;100.00;100338.84;5121082;57;1136967;-71
2021/12/31 01:04:31;;;;;;;9.23;7.13;;;;;;;9.56;100.00;100357.72;5120859;57;1137272;-71
2021/12/31 01:09:38;;;;;;;8.63;7.80;;;;;;;9.59;100.00;100364.56;5100367;57;1137339;-71
2021/12/31 01:15:11;;;;;;;8.53;7.43;;;;;;;9.60;100.00;100362.29;5038880;58;1136957;-77
2021/12/31 01:19:52;;;;;;;10.27;8.47;;;;;;;9.61;100.00;100368.78;5031987;58;1137053;-77
2021/12/31 01:24:59;;;;;;;10.00;8.70;;;;;;;9.63;100.00;100369.95;5038832;58;1139044;-73
2021/12/31 01:30:08;;;;;;;9.30;8.37;;;;;;;9.64;100.00;100370.31;5038824;58;1139064;-76
2021/12/31 01:35:15;;;;;;;9.40;8.30;;;;;;;9.65;100.00;100384.73;5038502;58;1134975;-75
2021/12/31 01:40:20;;;;;;;10.03;7.97;;;;;;;9.68;100.00;100391.58;5038928;58;1139007;-76
2021/12/31 01:45:30;;;;;;;9.27;8.23;;;;;;;9.66;100.00;100396.13;5039099;58;1141073;-73
2021/12/31 01:50:35;;;;;;;7.97;7.17;;;;;;;9.67;100.00;100401.30;5044675;58;1139063;-73
2021/12/31 01:55:41;;;;;;;8.07;7.27;;;;;;;9.71;100.00;100395.31;5048586;58;1139276;-74
2021/12/31 02:00:47;;;;;;;8.07;6.43;;;;;;;9.74;100.00;100403.02;5048663;58;1139066;-73
2021/12/31 02:05:52;;;;;;;8.63;6.63;;;;;;;9.78;100.00;100393.88;5048393;58;1139222;-78
2021/12/31 02:10:59;;;;;;;10.27;8.83;;;;;;;9.80;100.00;100380.08;5136877;56;1138996;-75
2021/12/31 02:16:05;;;;;;;11.63;8.97;;;;;;;9.81;100.00;100372.04;5217540;56;1141066;-76
2021/12/31 02:21:13;;;;;;;13.33;10.03;;;;;;;9.82;100.00;100381.64;5217099;56;1141111;-75
2021/12/31 02:26:19;;;;;;;10.27;8.03;;;;;;;9.80;100.00;100374.31;5217144;56;1143784;-77
2021/12/31 02:31:25;;;;;;;11.53;10.30;;;;;;;9.79;100.00;100371.31;5217019;56;1141228;-76
2021/12/31 02:36:31;;;;;;;10.77;8.57;;;;;;;9.79;100.00;100367.34;5217138;56;1143185;-73
2021/12/31 02:41:37;;;;;;;13.15;9.28;;;;;;;9.80;100.00;100372.16;5217392;56;1141708;-77
2021/12/31 02:46:43;;;;;;;11.73;9.30;;;;;;;9.78;100.00;100376.23;5217059;56;1141166;-75
2021/12/31 02:51:49;;;;;;;9.50;8.53;;;;;;;9.80;100.00;100366.39;5216147;56;1141330;-74
2021/12/31 02:56:55;;;;;;;8.60;7.60;;;;;;;9.80;100.00;100365.06;5215722;56;1138972;-74
2021/12/31 03:02:03;;;;;;;6.77;6.17;;;;;;;9.80;100.00;100369.03;5215558;56;1139108;-75
2021/12/31 03:07:11;;;;;;;8.47;7.43;;;;;;;9.80;100.00;100369.03;5215082;56;1139030;-75
2021/12/31 03:12:17;;;;;;;7.27;6.00;;;;;;;9.80;100.00;100372.16;5107926;57;1139025;-77
2021/12/31 03:17:24;;;;;;;6.83;6.17;;;;;;;9.82;100.00;100363.63;5129475;57;1139708;-79
2021/12/31 03:22:29;;;;;;;7.77;6.97;;;;;;;9.82;100.00;100371.08;5129903;57;1139311;-78
2021/12/31 03:27:36;;;;;;;7.63;5.53;;;;;;;9.86;100.00;100365.93;5129481;57;1139099;-73
2021/12/31 03:32:41;;;;;;;5.57;4.97;;;;;;;9.87;100.00;100362.81;5129597;57;1139147;-73
2021/12/31 03:37:49;;;;;;;5.70;5.30;;;;;;;9.88;100.00;100358.73;5090467;57;1138948;-75
2021/12/31 03:42:55;;;;;;;7.23;5.47;;;;;;;9.90;100.00;100353.34;5130344;57;1139013;-74
2021/12/31 03:48:01;;;;;;;4.60;4.20;;;;;;;9.92;100.00;100351.91;5130142;57;1139228;-73
2021/12/31 03:53:06;;;;;;;4.47;4.07;;;;;;;9.94;100.00;100349.95;5121802;56;1139156;-73
2021/12/31 03:58:12;;;;;;;4.63;3.40;;;;;;;9.94;100.00;100346.83;5118263;57;1139173;-78
2021/12/31 04:03:18;;;;;;;4.90;4.50;;;;;;;9.95;100.00;100347.20;5118112;57;1139270;-76
2021/12/31 04:08:24;;;;;;;4.67;3.37;;;;;;;9.99;100.00;100344.69;5117163;57;1139355;-77
2021/12/31 04:13:30;;;;;;;3.47;3.17;;;;;;;10.01;100.00;100350.69;5035802;58;1139222;-73
2021/12/31 04:18:36;;;;;;;2.50;2.40;;;;;;;10.02;100.00;100340.48;5035434;58;1141208;-73
2021/12/31 04:24:03;;;;;;;2.80;2.60;;;;;;;10.02;100.00;100345.77;5035762;58;1141371;-72
2021/12/31 04:28:56;;;;;;;2.50;2.37;;;;;;;10.01;100.00;100341.45;5032619;58;1141177;-80
2021/12/31 04:34:04;;;;;;;2.90;2.70;;;;;;;10.02;100.00;100338.33;5035898;58;1141101;-77
2021/12/31 04:39:09;;;;;;;3.37;3.07;;;;;;;10.00;100.00;100335.80;5036417;58;1141213;-74
2021/12/31 04:44:16;;;;;;;2.60;2.40;;;;;;;10.01;100.00;100333.52;5036432;58;1139269;-75
2021/12/31 04:49:22;;;;;;;1.93;1.83;;;;;;;9.98;100.00;100330.27;5039660;57;1139267;-78
2021/12/31 04:54:29;;;;;;;1.40;1.40;;;;;;;9.94;100.00;100329.66;5114736;57;1136995;-73
2021/12/31 04:59:36;;;;;;;1.27;1.17;;;;;;;9.92;100.00;100327.64;5132253;57;1137014;-76
2021/12/31 05:04:42;;;;;;;1.57;1.23;;;;;;;9.91;100.00;100318.03;5132218;57;1136913;-72
2021/12/31 05:09:49;;;;;;;1.20;1.10;;;;;;;9.91;100.00;100315.39;5157653;56;1136989;-71
2021/12/31 05:14:55;;;;;;;1.33;1.23;;;;;;;9.91;100.00;100315.39;5217923;56;1137144;-75
2021/12/31 05:20:02;;;;;;;1.20;1.20;;;;;;;9.92;100.00;100313.12;5217777;56;1136981;-77
2021/12/31 05:25:09;;;;;;;0.90;0.90;;;;;;;9.93;100.00;100320.56;5217541;56;1137212;-74
2021/12/31 05:30:15;;;;;;;1.10;1.10;;;;;;;9.93;100.00;100327.17;5110462;56;1136963;-73
2021/12/31 05:35:21;;;;;;;1.77;1.30;;;;;;;9.91;100.00;100321.16;5106316;57;1136794;-76
2021/12/31 05:40:27;;;;;;;1.20;1.10;;;;;;;9.93;100.00;100327.17;5141918;57;1137004;-74
2021/12/31 05:45:33;;;;;;;1.23;1.23;;;;;;;9.92;100.00;100325.00;5112283;57;1136948;-75
2021/12/31 05:50:39;;;;;;;0.90;0.90;;;;;;;9.94;100.00;100320.41;5102439;57;1136956;-76
2021/12/31 05:55:46;;;;;;;1.43;1.43;;;;;;;9.93;100.00;100317.92;5100711;57;1137273;-73
2021/12/31 06:00:52;;;;;;;1.13;1.13;;;;;;;9.96;100.00;100325.10;5098186;57;1137132;-78
2021/12/31 06:05:59;;;;;;;1.53;1.43;;;;;;;10.01;100.00;100319.47;5098854;57;1137256;-74
2021/12/31 06:11:05;;;;;;;2.03;1.93;;;;;;;10.03;100.00;100321.03;5100233;57;1137461;-77
2021/12/31 06:16:13;;;;;;;1.40;1.40;;;;;;;10.08;100.00;100324.13;5063081;57;1136942;-73
2021/12/31 06:21:19;;;;;;;2.30;1.63;;;;;;;10.12;100.00;100319.45;5122359;57;1141035;-74
2021/12/31 06:26:24;;;;;;;1.30;1.30;;;;;;;10.14;100.00;100326.78;5141517;57;1141202;-75
2021/12/31 06:31:30;;;;;;;1.35;1.35;;;;;;;10.19;100.00;100329.95;5141946;57;1141085;-74
2021/12/31 06:36:36;;;;;;;1.87;1.27;;;;;;;10.23;100.00;100338.81;5141975;57;1141118;-74
2021/12/31 06:41:42;;;;;;;1.30;1.30;;;;;;;10.27;100.00;100336.78;5141645;57;1141244;-75
2021/12/31 06:46:48;;;;;;;1.57;1.47;;;;;;;10.30;100.00;100344.47;5141478;57;1141116;-73
2021/12/31 06:51:54;;;;;;;1.20;1.20;;;;;;;10.33;100.00;100334.14;5141505;57;1141358;-77
2021/12/31 06:57:00;;;;;;;1.40;1.40;;;;;;;10.37;100.00;100335.59;5141544;57;1141191;-70
2021/12/31 07:02:06;;;;;;;1.20;1.20;;;;;;;10.41;100.00;100338.32;5141512;57;1141147;-76
2021/12/31 07:07:12;;;;;;;2.37;2.17;;;;;;;10.47;100.00;100345.30;5141517;57;1141232;-73
2021/12/31 07:12:18;;;;;;;3.27;2.03;;;;;;;10.50;100.00;100341.09;5075742;57;1141091;-73
2021/12/31 07:17:28;;;;;;;4.77;2.57;;;;;;;10.52;100.00;100356.36;5058066;57;1141101;-77
2021/12/31 07:22:37;;;;;;;5.87;2.80;;;;;;;10.59;100.00;100360.66;5057998;58;1141610;-74
2021/12/31 07:27:43;;;;;;;6.13;3.90;;;;;;;10.64;100.00;100353.20;5058318;58;1141389;-72
2021/12/31 07:32:48;;;;;;;6.70;5.30;;;;;;;10.64;100.00;100359.81;5058273;58;1141245;-77
2021/12/31 07:37:56;;;;;;;13.80;11.07;;;;;;;10.66;100.00;100364.98;5058162;58;1141091;-72
2021/12/31 07:43:02;;;;;;;10.17;9.07;;;;;;;10.69;100.00;100363.42;5058124;57;1145708;-73
2021/12/31 07:48:09;;;;;;;11.97;5.90;;;;;;;10.71;100.00;100367.59;5051637;57;1143110;-74
2021/12/31 07:53:14;;;;;;;16.57;11.57;;;;;;;10.73;100.00;100367.48;5048088;57;1143162;-73
2021/12/31 07:58:20;;;;;;;25.77;23.07;;;;;;;10.76;100.00;100377.81;5038345;57;1145237;-74
2021/12/31 08:03:26;;;;;;;46.73;16.93;;;;;;;10.76;100.00;100371.20;5038454;58;1145495;-73
2021/12/31 08:08:32;;;;;;;26.30;11.37;;;;;;;10.74;100.00;100370.00;5045136;56;1145381;-73
2021/12/31 08:13:38;;;;;;;15.53;9.87;;;;;;;10.76;100.00;100368.56;5205295;56;1145401;-73
2021/12/31 08:18:44;;;;;;;34.37;19.20;;;;;;;10.77;100.00;100377.70;5205147;56;1143367;-73
2021/12/31 08:23:49;;;;;;;15.43;10.40;;;;;;;10.78;100.00;100379.37;5204713;56;1145270;-75
2021/12/31 08:28:58;;;;;;;168.73;91.53;;;;;;;10.78;100.00;100371.45;5098240;56;1145243;-75
2021/12/31 08:34:04;;;;;;;45.13;16.70;;;;;;;10.81;100.00;100384.91;5085012;57;1147254;-75
2021/12/31 08:39:10;;;;;;;38.63;15.47;;;;;;;10.79;100.00;100370.48;5094140;57;1145175;-75
2021/12/31 08:44:16;;;;;;;11.57;7.17;;;;;;;10.82;100.00;100379.98;5083751;57;1145296;-75
2021/12/31 08:49:24;;;;;;;18.82;9.90;;;;;;;10.81;100.00;100386.23;5079530;57;1143288;-75
2021/12/31 08:54:30;;;;;;;43.50;21.87;;;;;;;10.79;100.00;100412.81;4965203;58;1143223;-75
2021/12/31 08:59:36;;;;;;;41.40;32.33;;;;;;;10.79;100.00;100406.20;5141708;57;1145559;-74
2021/12/31 09:04:42;;;;;;;12.30;7.60;;;;;;;10.77;100.00;100416.53;5046837;58;1145357;-75
2021/12/31 09:09:48;;;;;;;12.10;6.50;;;;;;;10.75;100.00;100419.78;5117911;57;1143220;-75
2021/12/31 09:14:54;;;;;;;10.70;6.23;;;;;;;10.74;100.00;100414.97;5058702;57;1143268;-75
2021/12/31 09:20:00;;;;;;;10.10;6.93;;;;;;;10.71;100.00;100419.17;5058562;57;1143224;-75
2021/12/31 09:25:06;;;;;;;10.07;5.97;;;;;;;10.72;100.00;100417.38;5054859;57;1143325;-75
2021/12/31 09:30:12;;;;;;;8.07;5.80;;;;;;;10.71;100.00;100411.72;5047728;57;1143221;-75
2021/12/31 09:35:18;;;;;;;19.27;9.27;;;;;;;10.71;100.00;100411.24;5048266;57;1139035;-75
2021/12/31 09:40:24;;;;;;;96.73;38.63;;;;;;;10.72;100.00;100401.02;5048228;57;1141282;-75
2021/12/31 09:45:31;;;;;;;677.53;273.27;;;;;;;10.72;100.00;100389.13;5048210;57;1143189;-75
2021/12/31 09:50:40;;;;;;;37.80;22.57;;;;;;;10.73;100.00;100377.58;5082877;57;1147425;-74
2021/12/31 09:55:52;;;;;;;37.10;28.65;;;;;;;10.62;100.00;100360.89;5096837;57;1143356;-75
2021/12/31 10:01:01;;;;;;;10.80;9.50;;;;;;;10.73;100.00;100379.37;5128309;57;1143277;-75
2021/12/31 10:06:14;;;;;;;7.90;5.90;;;;;;;10.72;100.00;100373.73;5106980;57;1141119;-74
2021/12/31 10:11:26;;;;;;;7.03;6.17;;;;;;;10.72;100.00;100377.22;5111320;57;1139090;-75
2021/12/31 10:16:39;;;;;;;7.87;6.00;;;;;;;10.71;100.00;100366.27;5138716;57;1138996;-75
2021/12/31 10:21:51;;;;;;;6.63;4.63;;;;;;;10.72;100.00;100364.47;5055945;57;1139000;-75
2021/12/31 10:27:00;;;;;;;6.30;5.30;;;;;;;10.71;100.00;100369.41;5047171;58;1136895;-75
2021/12/31 10:32:09;;;;;;;6.43;4.70;;;;;;;10.74;100.00;100363.88;5147281;57;21162;-75
2021/12/31 10:37:27;;;;;;;52.67;18.82;;;;;;;10.76;100.00;100368.56;5101924;57;1136844;-75
2021/12/31 10:42:33;;;;;;;6.47;5.07;;;;;;;10.78;100.00;100360.02;5107303;57;1145272;-74
2021/12/31 10:47:48;;;;;;;8.20;4.90;;;;;;;10.80;100.00;100367.36;5072751;57;1140978;-75
2021/12/31 10:53:02;;;;;;;5.73;4.77;;;;;;;10.81;100.00;100365.91;5104277;57;1141077;-75
2021/12/31 10:58:10;;;;;;;14.03;8.83;;;;;;;10.81;100.00;100355.33;5100848;57;1141183;-74
2021/12/31 11:03:19;;;;;;;12.17;7.23;;;;;;;10.82;100.00;100349.08;5079464;57;1143355;-73
2021/12/31 11:08:32;;;;;;;17.80;11.00;;;;;;;10.82;100.00;100343.78;5123547;56;1142591;-75
2021/12/31 11:13:38;;;;;;;11.00;6.33;;;;;;;10.83;100.00;100346.79;5214891;56;1145548;-74
2021/12/31 11:18:44;;;;;;;11.93;7.33;;;;;;;10.82;100.00;100334.52;5214943;56;1143726;-74
2021/12/31 11:23:50;;;;;;;8.80;6.13;;;;;;;10.83;100.00;100336.20;5209557;56;1143364;-73
2021/12/31 11:28:58;;;;;;;14.30;8.13;;;;;;;10.84;100.00;100329.11;5153759;56;1141156;-73
2021/12/31 11:34:12;;;;;;;108.43;88.67;;;;;;;10.85;100.00;100327.64;5119158;57;1143162;-73
2021/12/31 11:39:32;;;;;;;64.97;47.03;;;;;;;10.87;100.00;100333.64;5084038;57;1147338;-74
2021/12/31 11:45:00;;;;;;;497.03;225.43;;;;;;;10.89;100.00;100325.59;5046231;58;1145331;-73
2021/12/31 11:50:32;;;;;;;52.70;18.43;;;;;;;10.89;100.00;100315.84;5046197;58;1149392;-74
2021/12/31 11:55:47;;;;;;;30.87;11.60;;;;;;;10.92;100.00;100320.05;5052105;57;1145234;-74
2021/12/31 12:00:53;;;;;;;27.63;10.27;;;;;;;10.93;100.00;100314.63;5055537;58;1143230;-73
2021/12/31 12:06:01;;;;;;;23.47;9.13;;;;;;;10.92;100.00;100308.98;5074122;57;1143141;-73
2021/12/31 12:11:07;;;;;;;15.33;7.27;;;;;;;10.96;100.00;100294.19;5025458;57;1141228;-73
2021/12/31 12:16:16;;;;;;;39.03;19.60;;;;;;;10.99;100.00;100297.91;5104388;57;1141050;-74
2021/12/31 12:21:37;;;;;;;40.43;23.10;;;;;;;11.00;100.00;100298.27;5087272;57;1143433;-73
2021/12/31 12:26:45;;;;;;;41.63;23.97;;;;;;;11.00;100.00;100284.52;5089206;57;1143221;-73
2021/12/31 12:32:09;;;;;;;33.90;17.27;;;;;;;11.04;100.00;100282.47;5141129;57;1143250;-72
2021/12/31 12:37:15;;;;;;;121.63;43.37;;;;;;;11.05;100.00;100286.80;5056271;58;1143269;-73
2021/12/31 12:42:21;;;;;;;150.77;114.47;;;;;;;11.04;100.00;100273.20;5049168;58;1145562;-73
2021/12/31 12:47:27;;;;;;;188.90;63.30;;;;;;;11.06;100.00;100268.63;5049397;58;1145466;-72
2021/12/31 12:52:34;;;;;;;52.47;16.93;;;;;;;11.07;100.00;100267.66;5049365;58;1143511;-74
2021/12/31 12:57:42;;;;;;;22.17;6.87;;;;;;;11.11;100.00;100258.02;5038230;58;1145624;-73
2021/12/31 13:02:49;;;;;;;16.43;6.30;;;;;;;11.16;100.00;100251.00;4851396;60;1143415;-74
2021/12/31 13:07:55;;;;;;;267.43;125.53;;;;;;;11.20;100.00;100264.34;5008395;58;1143239;-75
2021/12/31 13:13:04;;;;;;;7.93;4.87;;;;;;;11.22;100.00;100266.38;5049987;57;1149449;-74
2021/12/31 13:18:11;;;;;;;5.47;4.23;;;;;;;11.24;100.00;100276.36;5088824;57;1141122;-75
2021/12/31 13:23:19;;;;;;;12.03;6.10;;;;;;;11.26;100.00;100272.61;5107174;57;1141038;-75
2021/12/31 13:28:28;;;;;;;17.10;6.97;;;;;;;11.27;100.00;100269.48;5133548;57;1143265;-74
2021/12/31 13:33:41;;;;;;;9.87;4.23;;;;;;;11.31;100.00;100280.14;5133788;57;1143225;-74
2021/12/31 13:39:18;;;;;;;200.63;83.33;;;;;;;11.34;100.00;100271.11;5105670;57;1141198;-75
2021/12/31 13:44:35;;;;;;;160.67;66.60;;;;;;;11.34;100.00;100262.69;5104832;57;1147377;-75
2021/12/31 13:49:53;;;;;;;204.87;82.73;;;;;;;11.38;100.00;100265.92;5082659;57;1147354;-74
2021/12/31 13:55:09;;;;;;;61.00;26.03;;;;;;;11.38;100.00;100265.44;5086386;57;1147640;-74
2021/12/31 14:00:16;;;;;;;23.33;10.00;;;;;;;11.37;100.00;100251.00;5087708;57;1145294;-74
2021/12/31 14:05:26;;;;;;;28.53;10.53;;;;;;;11.39;100.00;100262.30;5098107;57;1145620;-75
2021/12/31 14:10:34;;;;;;;12.37;5.57;;;;;;;11.38;100.00;100266.76;5084191;56;1145350;-75
2021/12/31 14:15:42;;;;;;;17.67;6.43;;;;;;;11.37;100.00;100262.91;5054905;57;1143202;-73
2021/12/31 14:20:48;;;;;;;18.07;6.57;;;;;;;11.33;100.00;100251.73;5048809;58;1143465;-73
2021/12/31 14:25:53;;;;;;;7.60;4.37;;;;;;;11.32;100.00;100254.03;5048732;58;1143243;-73
2021/12/31 14:30:59;;;;;;;5.17;3.10;;;;;;;11.29;100.00;100252.98;5087753;57;1141069;-74
2021/12/31 14:36:07;;;;;;;6.40;2.60;;;;;;;11.31;100.00;100251.02;5087400;57;1141233;-74
2021/12/31 14:41:22;;;;;;;4.30;2.30;;;;;;;11.33;100.00;100254.38;5102168;57;1141143;-74
2021/12/31 14:46:36;;;;;;;5.60;2.37;;;;;;;11.32;100.00;100250.54;5131856;57;1139099;-74
2021/12/31 14:51:38;;;;;;;3.07;1.90;;;;;;;11.33;100.00;100237.66;5113889;57;1139259;-74
2021/12/31 14:56:46;;;;;;;6.77;3.07;;;;;;;11.34;100.00;100236.69;5088230;57;1139040;-73
2021/12/31 15:01:52;;;;;;;4.63;2.40;;;;;;;11.35;100.00;100241.86;5136370;57;1139189;-75
2021/12/31 15:06:58;;;;;;;4.43;2.70;;;;;;;11.38;100.00;100240.28;5137109;57;1139033;-74
2021/12/31 15:12:06;;;;;;;3.60;2.10;;;;;;;11.37;100.00;100251.00;5106790;57;1138972;-74
2021/12/31 15:17:13;;;;;;;20.83;7.57;;;;;;;11.40;100.00;100250.74;5072791;57;1139032;-74
2021/12/31 15:22:19;;;;;;;3.67;2.57;;;;;;;11.41;100.00;100247.13;5058292;58;1141152;-82
2021/12/31 15:27:25;;;;;;;22.37;16.80;;;;;;;11.42;100.00;100248.80;5096807;57;1138977;-83
2021/12/31 15:32:30;;;;;;;28.07;20.30;;;;;;;11.41;100.00;100240.02;5104641;57;1143557;-82
2021/12/31 15:37:37;;;;;;;120.17;54.87;;;;;;;11.42;100.00;100237.73;5099007;57;1143207;-81
2021/12/31 15:42:42;;;;;;;53.67;20.60;;;;;;;11.43;100.00;100231.95;5058146;57;1145557;-80
2021/12/31 15:47:48;;;;;;;92.63;37.60;;;;;;;11.43;100.00;100240.73;5109572;57;1143234;-85
2021/12/31 15:52:54;;;;;;;15.20;8.43;;;;;;;11.43;100.00;100231.95;5141487;57;1143193;-81
2021/12/31 15:58:00;;;;;;;7.67;3.87;;;;;;;11.45;100.00;100233.98;5141490;57;1141170;-80
2021/12/31 16:03:06;;;;;;;71.90;53.30;;;;;;;11.45;100.00;100220.27;5141538;57;1136998;-82
2021/12/31 16:08:12;;;;;;;55.83;21.40;;;;;;;11.46;100.00;100215.77;5100109;57;1141172;-77
2021/12/31 16:13:17;;;;;;;16.87;6.93;;;;;;;11.47;100.00;100219.62;5140777;57;1145199;-79
2021/12/31 16:18:24;;;;;;;20.50;8.23;;;;;;;11.52;100.00;100209.96;5141690;57;1143116;-81
2021/12/31 16:23:29;;;;;;;16.60;4.77;;;;;;;11.54;100.00;100202.73;5141586;57;1143166;-81
2021/12/31 16:28:35;;;;;;;13.83;6.13;;;;;;;11.56;100.00;100201.62;5090115;57;1142777;-84
2021/12/31 16:33:43;;;;;;;8.83;4.50;;;;;;;11.58;100.00;100202.34;5077193;57;1143260;-82
2021/12/31 16:38:49;;;;;;;14.53;6.27;;;;;;;11.61;100.00;100205.17;5092848;57;1141122;-82
2021/12/31 16:43:55;;;;;;;11.77;4.83;;;;;;;11.61;100.00;100205.17;5118944;57;1143162;-80
2021/12/31 16:49:00;;;;;;;25.07;11.57;;;;;;;11.61;100.00;100195.91;5141356;57;1143235;-83
2021/12/31 16:54:06;;;;;;;6.53;3.27;;;;;;;11.62;100.00;100187.83;5141378;57;1145297;-85
2021/12/31 16:59:12;;;;;;;17.60;7.53;;;;;;;11.61;100.00;100191.45;5141533;57;1141094;-81
2021/12/31 17:04:17;;;;;;;14.00;4.47;;;;;;;11.63;100.00;100182.89;5133833;57;1143554;-81
2021/12/31 17:09:23;;;;;;;13.27;5.57;;;;;;;11.63;100.00;100186.86;5147162;56;1143495;-77
2021/12/31 17:14:29;;;;;;;25.53;15.93;;;;;;;11.62;100.00;100178.56;5107008;56;1143126;-82
2021/12/31 17:19:36;;;;;;;5.70;2.10;;;;;;;11.66;100.00;100184.92;5047900;57;1145382;-76
2021/12/31 17:24:41;;;;;;;7.13;2.90;;;;;;;11.68;100.00;100186.95;5034673;57;1141123;-72
2021/12/31 17:29:47;;;;;;;11.23;4.30;;;;;;;11.70;100.00;100194.28;5048718;57;1141075;-73
2021/12/31 17:34:53;;;;;;;11.77;3.90;;;;;;;11.70;100.00;100192.96;5062601;57;1143185;-75
2021/12/31 17:40:01;;;;;;;7.03;3.50;;;;;;;11.70;100.00;100186.34;5087455;57;1143219;-75
2021/12/31 17:45:12;;;;;;;9.63;4.37;;;;;;;11.72;100.00;100194.99;5128681;57;1141394;-76
2021/12/31 17:50:15;;;;;;;9.80;5.07;;;;;;;11.69;100.00;100188.63;5129272;57;1141146;-76
2021/12/31 17:55:21;;;;;;;11.73;5.23;;;;;;;11.66;100.00;100199.00;5063703;57;1141094;-72
2021/12/31 18:00:29;;;;;;;6.07;3.17;;;;;;;11.61;100.00;100196.75;5129556;57;1143237;-76
2021/12/31 18:05:35;;;;;;;4.90;3.10;;;;;;;11.60;100.00;100187.16;5096358;57;1141117;-77
2021/12/31 18:10:41;;;;;;;6.37;2.80;;;;;;;11.61;100.00;100198.08;5105354;56;1141026;-73
2021/12/31 18:15:47;;;;;;;3.53;2.30;;;;;;;11.57;100.00;100211.25;5120775;57;1141178;-75
2021/12/31 18:20:53;;;;;;;4.00;2.27;;;;;;;11.44;100.00;100213.77;5102254;57;1141237;-71
2021/12/31 18:26:00;;;;;;;10.95;4.33;;;;;;;11.31;100.00;100218.41;5116235;57;1141109;-72
2021/12/31 18:31:06;;;;;;;12.00;6.42;;;;;;;11.17;100.00;100224.40;5099549;57;1143246;-73
2021/12/31 18:36:12;;;;;;;17.23;6.10;;;;;;;11.07;100.00;100222.67;5085060;57;1143245;-75
2021/12/31 18:41:17;;;;;;;13.80;7.17;;;;;;;11.02;100.00;100236.28;5141739;57;1143191;-75
2021/12/31 18:46:31;;;;;;;8.17;3.07;;;;;;;10.97;100.00;100237.66;5126488;57;1143437;-75
2021/12/31 18:51:36;;;;;;;;;;;;;;;10.90;100.00;100235.51;5062178;58;1141200;-74
2021/12/31 18:56:42;;;;;;;20.00;12.60;;;;;;;10.86;100.00;100238.05;5122638;57;978482;-70
2021/12/31 19:01:47;;;;;;;14.70;8.27;;;;;;;10.86;100.00;100243.33;5141743;57;1143251;-71
2021/12/31 19:06:53;;;;;;;18.73;9.67;;;;;;;10.84;100.00;100240.00;5131799;57;1143360;-72
2021/12/31 19:12:00;;;;;;;9.97;5.57;;;;;;;10.83;100.00;100245.42;5191523;56;1143231;-76
2021/12/31 19:17:06;;;;;;;6.00;3.67;;;;;;;10.79;100.00;100242.18;5215046;56;1141098;-75
2021/12/31 19:22:12;;;;;;;7.83;3.70;;;;;;;10.78;100.00;100237.85;5215140;56;1141102;-74
2021/12/31 19:27:18;;;;;;;3.70;2.67;;;;;;;10.77;100.00;100243.27;5131460;56;1139385;-70
2021/12/31 19:32:24;;;;;;;5.40;3.07;;;;;;;10.75;100.00;100238.10;5077848;57;1139028;-75
2021/12/31 19:37:33;;;;;;;5.10;3.27;;;;;;;10.75;100.00;100253.13;5084722;57;1139063;-75
2021/12/31 19:42:39;;;;;;;5.43;3.47;;;;;;;10.74;100.00;100239.55;5072988;57;1139345;-74
2021/12/31 19:47:45;;;;;;;5.23;3.07;;;;;;;10.76;100.00;100238.94;5063654;57;1139049;-71
2021/12/31 19:52:50;;;;;;;5.00;3.23;;;;;;;10.74;100.00;100241.71;5108319;57;1139299;-73
2021/12/31 19:57:56;;;;;;;4.40;3.12;;;;;;;10.75;100.00;100253.97;5116579;57;1139032;-71
2021/12/31 20:03:03;;;;;;;6.30;4.40;;;;;;;10.78;100.00;100251.56;5121489;57;1139107;-71
2021/12/31 20:08:16;;;;;;;8.03;5.53;;;;;;;10.79;100.00;100255.89;5064999;57;1139071;-74
2021/12/31 20:13:17;;;;;;;2.47;2.23;;;;;;;10.79;100.00;100258.53;5117846;57;1139016;-73
2021/12/31 20:18:23;;;;;;;3.27;2.97;;;;;;;10.81;100.00;100247.34;5111314;57;1139250;-75
2021/12/31 20:23:28;;;;;;;5.33;3.90;;;;;;;10.82;100.00;100255.64;5091334;57;1139069;-71
2021/12/31 20:28:35;;;;;;;7.80;4.87;;;;;;;10.83;100.00;100266.10;5088796;57;1138945;-71
2021/12/31 20:33:41;;;;;;;5.20;3.63;;;;;;;10.87;100.00;100270.63;5079662;57;1139049;-73
2021/12/31 20:38:46;;;;;;;3.33;2.70;;;;;;;10.86;100.00;100264.98;5055990;57;1139064;-77
2021/12/31 20:43:52;;;;;;;2.90;2.53;;;;;;;10.87;100.00;100261.37;5104941;57;1138970;-70
2021/12/31 20:49:02;;;;;;;2.97;2.70;;;;;;;10.88;100.00;100265.22;5076687;57;1139026;-72
2021/12/31 20:54:07;;;;;;;3.20;2.73;;;;;;;10.89;100.00;100274.83;5072632;57;1136977;-75
2021/12/31 20:59:14;;;;;;;6.67;4.35;;;;;;;10.91;100.00;100273.39;5132519;57;1141128;-69
2021/12/31 21:04:20;;;;;;;40.58;36.23;;;;;;;10.91;100.00;100270.26;5047877;57;1141284;-73
2021/12/31 21:09:26;;;;;;;2.83;2.63;;;;;;;10.93;100.00;100283.36;5159107;56;1145420;-70
2021/12/31 21:14:32;;;;;;;9.43;5.17;;;;;;;10.96;100.00;100289.73;5132894;56;1141110;-70
2021/12/31 21:19:38;;;;;;;3.12;2.17;;;;;;;10.99;100.00;100316.43;5129373;57;1141149;-74
2021/12/31 21:24:44;;;;;;;7.33;3.87;;;;;;;10.97;100.00;100315.23;5072492;57;1141219;-77
2021/12/31 21:29:50;;;;;;;6.67;3.50;;;;;;;10.99;100.00;100329.66;5093973;57;1141084;-73
2021/12/31 21:34:56;;;;;;;7.43;2.93;;;;;;;10.99;100.00;100320.40;5101663;57;1141087;-70
2021/12/31 21:40:05;;;;;;;9.80;3.50;;;;;;;10.98;100.00;100328.82;5142004;57;1141289;-68
2021/12/31 21:45:09;;;;;;;5.97;2.10;;;;;;;10.99;100.00;100326.53;5139855;57;1141110;-77
2021/12/31 21:50:15;;;;;;;2.90;1.60;;;;;;;10.99;100.00;100342.41;5141929;57;1141065;-75
2021/12/31 21:55:21;;;;;;;14.90;5.00;;;;;;;11.01;100.00;100343.58;5098125;57;1141344;-73
2021/12/31 22:00:29;;;;;;;1.70;1.60;;;;;;;11.02;100.00;100347.91;5108338;57;1143282;-73
2021/12/31 22:05:37;;;;;;;3.63;1.53;;;;;;;11.03;100.00;100349.59;5128482;57;1141079;-71
2021/12/31 22:10:43;;;;;;;2.00;1.80;;;;;;;11.03;100.00;100353.08;5182242;56;1141053;-74
2021/12/31 22:15:48;;;;;;;3.72;2.15;;;;;;;11.04;100.00;100367.99;5227847;56;1141056;-72
2021/12/31 22:20:56;;;;;;;5.30;4.70;;;;;;;11.04;100.00;100361.86;5227890;56;1141245;-73
2021/12/31 22:26:02;;;;;;;1.80;1.70;;;;;;;11.06;100.00;100367.88;5227365;56;1141382;-69
2021/12/31 22:31:09;;;;;;;5.33;3.00;;;;;;;11.05;100.00;100372.32;5226793;56;1141339;-71
2021/12/31 22:36:15;;;;;;;2.03;1.10;;;;;;;11.04;100.00;100364.02;5209122;56;1141358;-74
2021/12/31 22:41:20;;;;;;;3.73;1.13;;;;;;;11.04;100.00;100375.94;5137414;57;1141454;-71
2021/12/31 22:46:27;;;;;;;4.07;1.83;;;;;;;11.04;100.00;100364.02;5137246;57;1141113;-72
2021/12/31 22:51:33;;;;;;;1.80;1.33;;;;;;;11.04;100.00;100377.73;5137308;57;1141316;-76
2021/12/31 22:56:40;;;;;;;2.20;1.80;;;;;;;11.02;100.00;100379.19;5137233;57;1141415;-77